Date,TemperatureHighF,TemperatureAvgF,TemperatureLowF,DewpointHighF,DewpointAvgF,DewpointLowF,HumidityHigh,HumidityAvg,HumidityLow,PressureMaxIn,PressureMinIn,WindSpeedMaxMPH,WindSpeedAvgMPH,GustSpeedMaxMPH,PrecipitationSumIn
2013-6-1,84,73,66,68,64,63,94,77,55,0.00,40.00,15,7,24,1.14
2013-6-2,75,69,60,66,58,-100,94,74,50,0.00,40.00,22,8,26,0.00
2013-6-3,62,56,49,54,43,34,86,67,45,0.00,40.00,8,4,12,4.53
2013-6-4,65,56,46,48,41,34,89,63,36,0.00,40.00,8,2,10,0.00
2013-6-5,72,61,49,52,46,41,88,62,36,0.00,40.00,13,5,17,0.00
2013-6-6,63,59,55,61,55,50,95,90,69,0.00,40.00,7,4,14,12.47
2013-6-7,61,57,54,55,54,52,95,93,84,0.00,40.00,9,4,14,0.00
2013-6-8,70,61,55,55,54,50,94,80,56,0.00,40.00,6,2,8,0.00
2013-6-9,80,66,51,61,54,46,91,69,40,0.00,40.00,7,2,10,0.00
2013-6-10,75,70,65,70,64,57,94,85,58,0.00,40.00,15,4,24,2.28
2013-6-11,74,67,63,64,62,59,95,85,64,0.00,40.00,9,4,14,0.00
2013-6-12,79,69,62,68,62,57,91,80,64,0.00,40.00,6,2,8,2.83
2013-6-13,70,64,59,68,61,55,95,92,77,0.00,40.00,11,4,15,9.09
2013-6-14,70,62,57,59,55,50,94,80,59,0.00,40.00,8,3,12,0.00
2013-6-15,80,66,50,59,51,45,93,65,36,0.00,40.00,9,2,14,0.00
2013-6-16,80,72,66,64,60,54,82,71,59,0.00,40.00,19,8,26,0.00
2013-6-17,84,72,62,66,60,55,91,70,44,0.00,40.00,12,4,19,2.83
2013-6-18,69,64,60,61,55,43,95,76,47,0.00,40.00,14,5,19,0.00
2013-6-19,71,63,52,55,48,39,91,62,36,0.00,40.00,9,3,12,0.00
2013-6-22,89,86,79,68,66,63,66,53,49,0.00,40.00,7,4,12,0.00
2013-6-23,89,85,76,70,65,61,73,53,41,0.00,40.00,11,7,14,0.00
2013-6-24,89,82,73,66,64,63,78,59,47,0.00,40.00,5,2,10,0.00
2013-6-25,89,81,69,70,65,63,91,63,47,0.00,40.00,11,6,17,0.00
2013-6-26,80,71,68,68,65,64,93,86,69,0.00,40.00,8,3,22,0.00
2013-6-27,77,72,70,68,66,64,94,84,69,0.00,40.00,7,2,14,1.14
2013-6-28,75,72,68,68,64,63,93,80,73,0.00,40.00,8,4,10,0.00